Time;durP1;ratioP1;P1;durP2;ratioP2;P2;SDS_P1;SDS_P2;PMS_P1;PMS_P2;Temp;Humidity;BMP_temperature;BMP_pressure;BME280_temperature;BME280_humidity;BME280_pressure;Samples;Min_cycle;Max_cycle;Signal;HPM_P1;HPM_P2
2023/04/16 00:00:49;;;;;;;0.43;0.43;;;9.40;99.90;;;;;;5012575;28;20038;-62
2023/04/16 00:03:15;;;;;;;23.45;3.42;;;9.40;99.90;;;;;;5011564;28;20057;-62
2023/04/16 00:05:41;;;;;;;0.70;0.70;;;9.40;99.90;;;;;;5011300;28;20042;-62
2023/04/16 00:08:06;;;;;;;0.40;0.40;;;9.30;99.90;;;;;;5013306;28;20045;-62
2023/04/16 00:10:33;;;;;;;1.85;1.38;;;9.40;99.90;;;;;;5013792;28;20069;-62
2023/04/16 00:12:59;;;;;;;0.20;0.20;;;9.40;99.90;;;;;;5015689;28;20040;-62
2023/04/16 00:15:24;;;;;;;1.45;0.22;;;9.40;99.90;;;;;;5032597;28;20044;-62
2023/04/16 00:17:50;;;;;;;6.97;1.27;;;9.40;99.90;;;;;;5015670;28;20069;-62
2023/04/16 00:20:16;;;;;;;0.32;0.32;;;9.30;99.90;;;;;;5011942;28;20049;-62
2023/04/16 00:22:42;;;;;;;0.10;0.10;;;9.40;99.90;;;;;;5017817;28;20033;-62
2023/04/16 00:25:08;;;;;;;0.55;0.55;;;9.40;99.90;;;;;;5024343;28;20116;-62
2023/04/16 00:27:33;;;;;;;0.68;0.68;;;9.40;99.90;;;;;;5014857;28;20443;-61
2023/04/16 00:29:59;;;;;;;0.60;0.60;;;9.40;99.90;;;;;;5019440;28;20069;-62
2023/04/16 00:32:24;;;;;;;0.95;0.68;;;9.40;99.90;;;;;;5023621;28;20053;-62
2023/04/16 00:34:50;;;;;;;1.90;1.50;;;9.40;99.90;;;;;;5017529;28;20053;-62
2023/04/16 00:37:16;;;;;;;0.38;0.38;;;9.40;99.90;;;;;;5013617;28;20033;-62
2023/04/16 00:39:41;;;;;;;2.17;0.68;;;9.50;99.90;;;;;;5015010;28;20051;-62
2023/04/16 00:42:07;;;;;;;0.17;0.17;;;9.40;99.90;;;;;;5016779;28;20058;-62
2023/04/16 00:44:35;;;;;;;0.70;0.68;;;9.40;99.90;;;;;;5024258;28;20128;-62
2023/04/16 00:47:01;;;;;;;0.50;0.50;;;9.40;99.90;;;;;;5016918;28;20514;-62
2023/04/16 00:49:28;;;;;;;0.88;0.80;;;9.40;99.90;;;;;;5016532;28;20410;-62
2023/04/16 00:51:54;;;;;;;0.75;0.75;;;9.40;99.90;;;;;;5010609;28;20045;-62
2023/04/16 00:54:20;;;;;;;0.80;0.75;;;9.40;99.90;;;;;;5015878;28;20050;-61
2023/04/16 00:56:46;;;;;;;0.30;0.30;;;9.40;99.90;;;;;;5021721;28;20389;-62
2023/04/16 00:59:11;;;;;;;0.40;0.38;;;9.40;99.90;;;;;;5013613;28;20406;-62
2023/04/16 01:01:38;;;;;;;0.17;0.17;;;9.40;99.90;;;;;;5010502;28;20485;-62
2023/04/16 01:04:05;;;;;;;0.20;0.20;;;9.30;99.90;;;;;;5012029;28;20128;-62
2023/04/16 01:06:31;;;;;;;0.35;0.35;;;9.40;99.90;;;;;;5011401;28;20097;-62
2023/04/16 01:08:57;;;;;;;0.80;0.80;;;9.40;99.90;;;;;;5020917;28;20038;-62
2023/04/16 01:11:23;;;;;;;1.15;1.08;;;9.40;99.90;;;;;;5024549;28;20034;-62
2023/04/16 01:13:48;;;;;;;0.43;0.43;;;9.40;99.90;;;;;;5020581;28;20045;-62
2023/04/16 01:16:14;;;;;;;0.30;0.30;;;9.40;99.90;;;;;;5034877;28;20045;-61
2023/04/16 01:18:39;;;;;;;0.88;0.88;;;9.40;99.90;;;;;;5011794;28;20124;-62
2023/04/16 01:21:05;;;;;;;1.35;1.00;;;9.40;99.90;;;;;;5010866;28;20084;-62
2023/04/16 01:23:31;;;;;;;0.47;0.30;;;9.40;99.90;;;;;;5027588;28;20092;-61
2023/04/16 01:25:57;;;;;;;0.93;0.93;;;9.40;99.90;;;;;;5014666;28;20054;-62
2023/04/16 01:28:22;;;;;;;1.38;1.27;;;9.40;99.90;;;;;;5013114;28;20034;-62
2023/04/16 01:30:48;;;;;;;0.30;0.30;;;9.40;99.90;;;;;;5015261;28;20080;-62
2023/04/16 01:33:14;;;;;;;0.68;0.68;;;9.40;99.90;;;;;;5011631;28;20722;-62
2023/04/16 01:35:40;;;;;;;5.68;1.55;;;9.40;99.90;;;;;;5010233;28;20057;-62
2023/04/16 01:38:07;;;;;;;1.90;1.48;;;9.40;99.90;;;;;;5027257;28;20046;-62
2023/04/16 01:40:36;;;;;;;0.45;0.45;;;9.40;99.90;;;;;;5013954;28;20081;-62
2023/04/16 01:43:03;;;;;;;0.65;0.45;;;9.40;99.90;;;;;;5010586;28;20060;-62
2023/04/16 01:45:30;;;;;;;0.25;0.25;;;9.40;99.90;;;;;;5022956;28;20397;-61
2023/04/16 01:47:56;;;;;;;0.57;0.57;;;9.40;99.90;;;;;;5017912;28;20042;-62
2023/04/16 01:50:22;;;;;;;0.50;0.50;;;9.40;99.90;;;;;;5014370;28;20041;-62
2023/04/16 01:52:48;;;;;;;0.20;0.20;;;9.30;99.90;;;;;;5008541;28;20049;-62
2023/04/16 01:55:14;;;;;;;0.85;0.85;;;9.40;99.90;;;;;;5018599;28;20046;-62
2023/04/16 01:57:40;;;;;;;1.85;1.75;;;9.40;99.90;;;;;;5016699;28;20481;-62
2023/04/16 02:00:07;;;;;;;0.60;0.60;;;9.40;99.90;;;;;;5010526;28;20061;-62
2023/04/16 02:02:33;;;;;;;1.77;1.30;;;9.40;99.90;;;;;;5014230;28;20077;-62
2023/04/16 02:04:59;;;;;;;0.75;0.73;;;9.40;99.90;;;;;;5008681;28;20033;-62
2023/04/16 02:07:24;;;;;;;0.30;0.30;;;9.30;99.90;;;;;;5029121;28;20050;-62
2023/04/16 02:09:50;;;;;;;0.32;0.32;;;9.30;99.90;;;;;;5012033;28;20050;-62
2023/04/16 02:12:16;;;;;;;1.15;1.00;;;9.30;99.90;;;;;;5016827;28;20041;-62
2023/04/16 02:14:42;;;;;;;0.88;0.88;;;9.30;99.90;;;;;;5010723;28;20116;-62
2023/04/16 02:17:08;;;;;;;0.70;0.70;;;9.40;99.90;;;;;;5010516;28;20137;-61
2023/04/16 02:19:34;;;;;;;1.13;1.02;;;9.30;99.90;;;;;;5020725;28;20049;-62
2023/04/16 02:22:03;;;;;;;0.80;0.80;;;9.40;99.90;;;;;;5009693;28;20052;-62
2023/04/16 02:24:29;;;;;;;0.10;0.10;;;9.30;99.90;;;;;;5022626;28;20384;-62
2023/04/16 02:26:55;;;;;;;2.60;1.52;;;9.30;99.90;;;;;;5010315;28;20383;-62
2023/04/16 02:29:21;;;;;;;1.23;1.13;;;9.30;99.90;;;;;;5012195;28;20046;-62
2023/04/16 02:31:47;;;;;;;2.55;0.88;;;9.30;99.90;;;;;;5024056;28;20037;-61
2023/04/16 02:34:14;;;;;;;1.92;1.20;;;9.30;99.90;;;;;;5008773;28;20057;-61
2023/04/16 02:36:39;;;;;;;0.55;0.55;;;9.30;99.90;;;;;;5017780;28;20128;-62
2023/04/16 02:39:05;;;;;;;9.45;1.38;;;9.30;99.90;;;;;;5021180;28;20133;-62
2023/04/16 02:41:31;;;;;;;2.45;1.77;;;9.30;99.90;;;;;;5009104;28;20042;-61
2023/04/16 02:43:56;;;;;;;0.30;0.30;;;9.30;99.90;;;;;;5012490;28;20136;-61
2023/04/16 02:46:22;;;;;;;0.60;0.60;;;9.30;99.90;;;;;;5018812;28;20765;-61
2023/04/16 02:48:47;;;;;;;3.72;2.08;;;9.30;99.90;;;;;;5008811;28;20037;-61
2023/04/16 02:51:13;;;;;;;0.30;0.30;;;9.30;99.90;;;;;;5010467;28;20104;-61
2023/04/16 02:53:39;;;;;;;0.10;0.10;;;9.30;99.90;;;;;;5012546;28;20582;-62
2023/04/16 02:56:05;;;;;;;0.95;0.95;;;9.30;99.90;;;;;;5018184;28;20037;-62
2023/04/16 02:58:30;;;;;;;0.30;0.30;;;9.40;99.90;;;;;;5016037;28;20125;-62
2023/04/16 03:00:56;;;;;;;0.30;0.30;;;9.30;99.90;;;;;;5017217;28;20121;-62
2023/04/16 03:03:21;;;;;;;2.03;1.92;;;9.40;99.90;;;;;;5016612;28;20034;-62
2023/04/16 03:05:47;;;;;;;0.30;0.30;;;9.40;99.90;;;;;;5017159;28;20041;-61
2023/04/16 03:08:13;;;;;;;2.33;1.58;;;9.40;99.90;;;;;;5011134;28;20046;-62
2023/04/16 03:10:40;;;;;;;1.00;0.90;;;9.40;99.90;;;;;;5025383;28;20050;-62
2023/04/16 03:13:05;;;;;;;0.77;0.57;;;9.40;99.90;;;;;;5022022;28;20046;-62
2023/04/16 03:15:31;;;;;;;1.02;1.02;;;9.40;99.90;;;;;;5022442;28;20040;-62
2023/04/16 03:17:57;;;;;;;0.68;0.68;;;9.30;99.90;;;;;;5011234;28;20033;-62
2023/04/16 03:20:22;;;;;;;2.55;1.10;;;9.40;99.90;;;;;;5013656;28;20100;-62
2023/04/16 03:22:51;;;;;;;5.70;1.67;;;9.40;99.90;;;;;;5012026;28;20124;-62
2023/04/16 03:25:17;;;;;;;0.80;0.80;;;9.40;99.90;;;;;;5014244;28;20508;-62
2023/04/16 03:27:42;;;;;;;1.23;0.68;;;9.40;99.90;;;;;;5018124;28;20045;-62
2023/04/16 03:30:11;;;;;;;0.28;0.28;;;9.40;99.90;;;;;;5020156;28;20103;-61
2023/04/16 03:32:37;;;;;;;2.08;1.73;;;9.40;99.90;;;;;;5016157;28;20088;-61
2023/04/16 03:35:03;;;;;;;2.88;2.03;;;9.40;99.90;;;;;;5013426;28;20037;-62
2023/04/16 03:37:29;;;;;;;3.00;2.75;;;9.40;99.90;;;;;;5017496;28;20045;-62
2023/04/16 03:39:55;;;;;;;1.85;1.75;;;9.40;99.90;;;;;;5012855;28;20042;-62
2023/04/16 03:42:20;;;;;;;0.25;0.25;;;9.40;99.90;;;;;;5026975;28;20049;-62
2023/04/16 03:44:46;;;;;;;2.03;1.70;;;9.40;99.90;;;;;;5011448;28;20073;-62
2023/04/16 03:47:11;;;;;;;1.10;1.08;;;9.40;99.90;;;;;;5016242;28;20065;-62
2023/04/16 03:49:37;;;;;;;0.10;0.10;;;9.40;99.90;;;;;;5015897;28;20041;-62
2023/04/16 03:52:03;;;;;;;4.95;2.08;;;9.40;99.90;;;;;;5019554;28;20460;-62
2023/04/16 03:54:29;;;;;;;1.73;0.90;;;9.40;99.90;;;;;;5019797;28;20493;-61
2023/04/16 03:56:55;;;;;;;1.08;0.98;;;9.40;99.90;;;;;;5011632;28;20205;-62
2023/04/16 03:59:21;;;;;;;0.70;0.70;;;9.40;99.90;;;;;;5021096;28;20049;-62
2023/04/16 04:01:47;;;;;;;2.28;1.25;;;9.40;99.90;;;;;;5018407;28;20562;-62
2023/04/16 04:04:12;;;;;;;1.10;1.00;;;9.50;99.90;;;;;;5016805;28;20045;-61
2023/04/16 04:06:38;;;;;;;2.30;1.65;;;9.40;99.90;;;;;;5016975;28;20042;-62
2023/04/16 04:09:04;;;;;;;4.70;1.98;;;9.40;99.90;;;;;;5014928;28;20713;-62
2023/04/16 04:11:29;;;;;;;0.50;0.50;;;9.40;99.90;;;;;;5013773;28;20045;-62
2023/04/16 04:13:55;;;;;;;2.72;2.30;;;9.40;99.90;;;;;;5011570;28;20030;-62
2023/04/16 04:16:20;;;;;;;2.40;1.45;;;9.40;99.90;;;;;;5019788;28;20041;-62
2023/04/16 04:18:46;;;;;;;1.00;1.00;;;9.30;99.90;;;;;;5021886;28;20048;-62
2023/04/16 04:21:12;;;;;;;15.38;2.78;;;9.40;99.90;;;;;;5021076;28;20048;-62
2023/04/16 04:23:37;;;;;;;0.32;0.32;;;9.40;99.90;;;;;;5020186;28;20386;-62
2023/04/16 04:26:04;;;;;;;10.52;1.17;;;9.40;99.90;;;;;;5013731;28;20038;-62
2023/04/16 04:28:31;;;;;;;2.67;1.85;;;9.40;99.90;;;;;;5011902;28;20054;-62
2023/04/16 04:30:57;;;;;;;3.47;1.17;;;9.40;99.90;;;;;;5011110;28;20077;-62
2023/04/16 04:33:26;;;;;;;0.95;0.95;;;9.40;99.90;;;;;;5009034;28;20084;-62
2023/04/16 04:35:53;;;;;;;0.68;0.68;;;9.40;99.90;;;;;;5018343;28;20068;-62
2023/04/16 04:38:20;;;;;;;1.58;1.20;;;9.40;99.90;;;;;;5039232;28;20105;-62
2023/04/16 04:40:47;;;;;;;0.98;0.90;;;9.30;99.90;;;;;;5019049;28;20067;-62
2023/04/16 04:43:13;;;;;;;0.65;0.65;;;9.40;99.90;;;;;;5015087;28;20037;-62
2023/04/16 04:45:39;;;;;;;1.13;0.98;;;9.40;99.90;;;;;;5015734;28;20044;-62
2023/04/16 04:48:05;;;;;;;0.40;0.40;;;9.40;99.90;;;;;;5021689;28;20451;-62
2023/04/16 04:50:30;;;;;;;0.55;0.55;;;9.40;99.90;;;;;;5019351;28;20038;-62
2023/04/16 04:52:56;;;;;;;0.35;0.17;;;9.40;99.90;;;;;;5018797;28;20054;-62
2023/04/16 04:55:21;;;;;;;3.13;2.67;;;9.30;99.90;;;;;;5009549;28;20099;-62
2023/04/16 04:57:48;;;;;;;0.43;0.43;;;9.30;99.90;;;;;;5021502;28;20397;-62
2023/04/16 05:00:13;;;;;;;4.55;1.80;;;9.30;99.90;;;;;;5012996;28;20814;-62
2023/04/16 05:02:39;;;;;;;12.40;2.97;;;9.40;99.90;;;;;;5015618;28;20050;-62
2023/04/16 05:05:05;;;;;;;3.00;2.75;;;9.30;99.90;;;;;;5010848;28;20038;-62
2023/04/16 05:07:31;;;;;;;1.17;1.00;;;9.40;99.90;;;;;;5017942;28;20034;-62
2023/04/16 05:09:56;;;;;;;0.70;0.70;;;9.40;99.90;;;;;;5010109;28;20125;-62
2023/04/16 05:12:22;;;;;;;1.63;1.35;;;9.30;99.90;;;;;;5016828;28;20037;-62
2023/04/16 05:14:47;;;;;;;37.95;1.02;;;9.40;99.90;;;;;;5015518;28;20045;-61
2023/04/16 05:17:13;;;;;;;3.63;2.20;;;9.40;99.90;;;;;;5016491;28;20046;-62
2023/04/16 05:19:38;;;;;;;35.70;2.28;;;9.40;99.90;;;;;;5010634;28;20049;-62
2023/04/16 05:22:04;;;;;;;2.08;1.65;;;9.40;99.90;;;;;;5011603;28;20033;-62
2023/04/16 05:24:30;;;;;;;1.00;1.00;;;9.40;99.90;;;;;;5009985;28;20037;-62
2023/04/16 05:26:56;;;;;;;1.38;1.35;;;9.40;99.90;;;;;;5011051;28;20116;-62
2023/04/16 05:29:22;;;;;;;1.17;1.17;;;9.40;99.90;;;;;;5013604;28;20057;-62
2023/04/16 05:31:47;;;;;;;2.95;2.15;;;9.40;99.90;;;;;;5016748;28;20046;-62
2023/04/16 05:34:13;;;;;;;0.90;0.85;;;9.40;99.90;;;;;;5014089;28;20053;-62
2023/04/16 05:36:38;;;;;;;0.28;0.28;;;9.40;99.90;;;;;;5011053;28;20038;-62
2023/04/16 05:39:06;;;;;;;1.75;1.58;;;9.40;99.90;;;;;;5010374;28;20042;-62
2023/04/16 05:41:32;;;;;;;0.50;0.50;;;9.40;99.90;;;;;;5009503;28;20038;-62
2023/04/16 05:43:57;;;;;;;1.70;1.60;;;9.40;99.90;;;;;;5009424;28;20064;-62
2023/04/16 05:46:23;;;;;;;0.85;0.82;;;9.40;99.90;;;;;;5018416;28;20041;-61
2023/04/16 05:48:48;;;;;;;0.32;0.32;;;9.30;99.90;;;;;;5019913;28;20037;-61
2023/04/16 05:51:14;;;;;;;0.40;0.40;;;9.40;99.90;;;;;;5014810;28;20050;-62
2023/04/16 05:53:40;;;;;;;0.65;0.65;;;9.40;99.90;;;;;;5015087;28;20053;-61
2023/04/16 05:56:06;;;;;;;0.10;0.10;;;9.40;99.90;;;;;;5014938;28;20034;-62
2023/04/16 05:58:32;;;;;;;1.38;0.75;;;9.40;99.90;;;;;;5010666;28;20045;-62
2023/04/16 06:00:58;;;;;;;1.90;0.65;;;9.40;99.90;;;;;;5013331;28;20044;-62
2023/04/16 06:03:24;;;;;;;0.88;0.88;;;9.50;99.90;;;;;;5011178;28;20044;-61
2023/04/16 06:05:49;;;;;;;0.40;0.40;;;9.40;99.90;;;;;;5011085;28;20044;-62
2023/04/16 06:08:15;;;;;;;1.27;0.90;;;9.40;99.90;;;;;;5009915;28;20038;-61
2023/04/16 06:10:40;;;;;;;0.90;0.88;;;9.40;99.90;;;;;;5010154;28;20064;-62
2023/04/16 06:13:06;;;;;;;0.38;0.38;;;9.40;99.90;;;;;;5012507;28;20056;-62
2023/04/16 06:15:32;;;;;;;0.10;0.10;;;9.40;99.90;;;;;;5011062;28;20054;-62
2023/04/16 06:17:57;;;;;;;1.15;1.08;;;9.40;99.90;;;;;;5021680;28;20058;-62
2023/04/16 06:20:23;;;;;;;0.28;0.28;;;9.40;99.90;;;;;;5016265;28;20049;-62
2023/04/16 06:22:49;;;;;;;0.73;0.73;;;9.40;99.90;;;;;;5009897;28;20042;-62
2023/04/16 06:25:14;;;;;;;3.47;2.03;;;9.40;99.90;;;;;;5008655;28;20050;-62
2023/04/16 06:27:40;;;;;;;0.63;0.63;;;9.40;99.90;;;;;;5016454;28;20045;-62
2023/04/16 06:30:11;;;;;;;2.65;1.15;;;9.40;99.90;;;;;;5030070;28;20048;-62
2023/04/16 06:32:37;;;;;;;1.55;1.42;;;9.40;99.90;;;;;;5016831;28;20046;-62
2023/04/16 06:35:03;;;;;;;1.17;1.10;;;9.40;99.90;;;;;;5008987;28;20085;-62
2023/04/16 06:37:29;;;;;;;0.52;0.52;;;9.50;99.90;;;;;;5014400;28;20493;-62
2023/04/16 06:39:54;;;;;;;0.63;0.63;;;9.50;99.90;;;;;;5023482;28;20046;-62
2023/04/16 06:42:20;;;;;;;3.03;1.67;;;9.50;99.90;;;;;;5013853;28;20036;-62
2023/04/16 06:44:46;;;;;;;0.63;0.63;;;9.50;99.90;;;;;;5024283;28;20048;-62
2023/04/16 06:47:12;;;;;;;7.22;3.40;;;9.50;99.90;;;;;;5017311;28;20050;-61
2023/04/16 06:49:38;;;;;;;9.73;2.72;;;9.50;99.90;;;;;;5019001;28;20056;-62
2023/04/16 06:52:04;;;;;;;0.40;0.40;;;9.50;99.90;;;;;;5020350;28;20064;-62
2023/04/16 06:54:30;;;;;;;0.30;0.30;;;9.50;99.90;;;;;;5030059;28;20054;-62
2023/04/16 06:56:56;;;;;;;0.25;0.25;;;9.50;99.90;;;;;;5015858;28;20482;-62
2023/04/16 06:59:21;;;;;;;0.52;0.52;;;9.60;99.90;;;;;;5020250;28;20085;-62
2023/04/16 07:01:47;;;;;;;0.20;0.20;;;9.50;99.90;;;;;;5016312;28;20040;-62
2023/04/16 07:04:12;;;;;;;0.10;0.10;;;9.60;99.90;;;;;;5034403;28;20076;-61
2023/04/16 07:06:38;;;;;;;3.63;3.28;;;9.60;99.90;;;;;;5018930;28;20037;-62
2023/04/16 07:09:03;;;;;;;1.30;1.23;;;9.60;99.90;;;;;;5035861;28;20048;-62
2023/04/16 07:11:29;;;;;;;0.20;0.20;;;9.50;99.90;;;;;;5024041;28;20064;-62
2023/04/16 07:13:56;;;;;;;3.13;2.55;;;9.50;99.90;;;;;;5046030;28;20158;-62
2023/04/16 07:16:22;;;;;;;0.30;0.30;;;9.60;99.90;;;;;;5018101;28;20061;-61
2023/04/16 07:18:47;;;;;;;2.08;1.50;;;9.60;99.90;;;;;;5026998;28;20053;-62
2023/04/16 07:21:13;;;;;;;7.57;2.72;;;9.60;99.90;;;;;;5021406;28;20398;-62
2023/04/16 07:23:39;;;;;;;3.10;0.90;;;9.60;99.90;;;;;;5030074;28;20037;-62
2023/04/16 07:26:04;;;;;;;0.30;0.30;;;9.60;99.90;;;;;;5028029;28;20038;-62
2023/04/16 07:28:30;;;;;;;0.55;0.55;;;9.70;99.90;;;;;;5012507;28;20042;-62
2023/04/16 07:30:56;;;;;;;0.40;0.40;;;9.70;99.90;;;;;;5020640;28;20176;-62
2023/04/16 07:33:21;;;;;;;1.60;1.38;;;9.80;99.90;;;;;;5027097;28;20550;-62
2023/04/16 07:35:47;;;;;;;0.60;0.60;;;9.70;99.90;;;;;;5016738;28;20135;-62
2023/04/16 07:38:13;;;;;;;0.10;0.10;;;9.70;99.90;;;;;;5021758;28;20045;-62
2023/04/16 07:40:39;;;;;;;0.10;0.10;;;9.70;99.90;;;;;;5028034;28;20038;-63
2023/04/16 07:43:04;;;;;;;0.15;0.15;;;9.70;99.90;;;;;;5012348;28;20045;-62
2023/04/16 07:45:30;;;;;;;0.70;0.47;;;9.70;99.90;;;;;;5024744;28;20041;-63
2023/04/16 07:47:56;;;;;;;1.38;1.30;;;9.70;99.90;;;;;;5012612;28;20128;-63
2023/04/16 07:50:21;;;;;;;0.22;0.22;;;9.80;99.90;;;;;;5014163;28;20041;-63
2023/04/16 07:52:47;;;;;;;0.35;0.35;;;9.80;99.90;;;;;;5026901;28;20136;-63
2023/04/16 07:55:13;;;;;;;9.63;1.58;;;9.80;99.90;;;;;;5015127;28;20042;-63
2023/04/16 07:57:39;;;;;;;5.65;1.50;;;9.80;99.90;;;;;;5022287;28;20060;-62
2023/04/16 08:00:06;;;;;;;2.38;0.85;;;9.80;99.90;;;;;;5017915;28;20485;-62
2023/04/16 08:02:32;;;;;;;1.13;1.13;;;9.80;99.90;;;;;;5027997;28;20496;-62
2023/04/16 08:04:58;;;;;;;0.63;0.63;;;9.80;99.90;;;;;;5026089;28;20080;-62
2023/04/16 08:07:24;;;;;;;1.73;1.63;;;9.90;99.90;;;;;;5022551;28;20568;-62
2023/04/16 08:09:52;;;;;;;8.27;1.65;;;9.80;99.90;;;;;;5019540;28;20125;-62
2023/04/16 08:12:19;;;;;;;0.10;0.10;;;9.80;99.90;;;;;;5024102;28;20079;-62
2023/04/16 08:14:46;;;;;;;0.43;0.43;;;9.80;99.90;;;;;;5011033;28;20046;-62
2023/04/16 08:17:12;;;;;;;11.85;0.73;;;9.90;99.90;;;;;;5012345;28;20038;-62
2023/04/16 08:19:38;;;;;;;0.30;0.30;;;9.90;99.90;;;;;;5018866;28;20141;-62
2023/04/16 08:22:03;;;;;;;0.73;0.73;;;9.90;99.90;;;;;;5012292;28;20124;-62
2023/04/16 08:24:29;;;;;;;2.15;2.05;;;9.90;99.90;;;;;;5022782;28;20099;-62
2023/04/16 08:26:55;;;;;;;12.27;1.65;;;10.00;99.90;;;;;;5013442;28;20037;-62
2023/04/16 08:29:20;;;;;;;0.93;0.93;;;10.00;99.90;;;;;;5018096;28;20077;-62
2023/04/16 08:31:46;;;;;;;5.72;1.70;;;10.00;99.90;;;;;;5012985;28;20061;-62
2023/04/16 08:34:12;;;;;;;0.25;0.25;;;10.00;99.90;;;;;;5014811;28;20545;-62
2023/04/16 08:36:39;;;;;;;0.38;0.38;;;10.00;99.90;;;;;;5018989;28;20061;-62
2023/04/16 08:39:05;;;;;;;0.35;0.35;;;10.00;99.90;;;;;;5021263;28;20077;-62
2023/04/16 08:41:33;;;;;;;0.38;0.38;;;10.00;99.90;;;;;;5016390;28;20168;-62
2023/04/16 08:44:06;;;;;;;0.15;0.15;;;10.00;99.90;;;;;;5014775;28;20037;-62
2023/04/16 08:46:36;;;;;;;4.07;2.63;;;10.10;99.90;;;;;;5023383;28;20042;-62
2023/04/16 08:49:05;;;;;;;0.63;0.63;;;10.10;99.90;;;;;;5010014;28;20095;-62
2023/04/16 08:51:34;;;;;;;1.55;0.95;;;10.10;99.90;;;;;;5016946;28;20057;-62
2023/04/16 08:54:03;;;;;;;3.35;0.70;;;10.10;99.90;;;;;;5012581;28;20104;-62
2023/04/16 08:56:31;;;;;;;3.03;1.77;;;10.20;99.90;;;;;;5021604;28;20746;-62
2023/04/16 08:58:57;;;;;;;0.08;0.08;;;10.20;99.90;;;;;;5019941;28;20129;-62
2023/04/16 09:01:24;;;;;;;9.43;2.42;;;10.20;99.90;;;;;;5024806;28;20053;-62
2023/04/16 09:03:50;;;;;;;0.38;0.38;;;10.20;99.90;;;;;;5019385;28;20033;-62
2023/04/16 09:06:16;;;;;;;0.50;0.50;;;10.20;99.90;;;;;;5024713;28;20045;-62
2023/04/16 09:08:47;;;;;;;2.00;1.77;;;10.30;99.90;;;;;;5009228;28;20382;-62
2023/04/16 09:11:16;;;;;;;0.25;0.25;;;10.30;99.90;;;;;;5043544;28;20129;-62
2023/04/16 09:13:41;;;;;;;0.63;0.63;;;10.40;99.90;;;;;;5014283;28;20042;-62
2023/04/16 09:16:08;;;;;;;0.40;0.40;;;10.40;99.90;;;;;;5009869;28;20045;-62
2023/04/16 09:18:34;;;;;;;0.28;0.28;;;10.40;99.90;;;;;;5010843;28;20053;-62
2023/04/16 09:20:59;;;;;;;0.90;0.90;;;10.40;99.90;;;;;;5010485;28;20046;-62
2023/04/16 09:23:25;;;;;;;1.02;0.93;;;10.40;99.90;;;;;;5010030;28;20389;-62
2023/04/16 09:25:51;;;;;;;0.13;0.13;;;10.50;99.90;;;;;;5015654;28;20773;-62
2023/04/16 09:28:52;;;;;;;0.10;0.10;;;10.50;99.90;;;;;;5010248;28;20103;-62
2023/04/16 09:31:18;;;;;;;0.00;0.00;;;10.60;99.90;;;;;;4947926;28;20071;-62
2023/04/16 09:34:01;;;;;;;0.10;0.10;;;10.60;99.90;;;;;;5001933;28;20067;-62
2023/04/16 09:36:27;;;;;;;1.27;1.27;;;10.70;99.90;;;;;;5017281;28;20056;-62
2023/04/16 09:38:53;;;;;;;0.95;0.38;;;10.70;99.90;;;;;;5013637;28;20044;-62
2023/04/16 09:41:23;;;;;;;0.85;0.85;;;10.70;99.90;;;;;;5010047;28;20482;-62
2023/04/16 09:43:58;;;;;;;0.28;0.28;;;10.80;99.90;;;;;;5007339;28;20125;-63
2023/04/16 09:46:32;;;;;;;0.95;0.80;;;10.80;99.90;;;;;;5014955;28;20066;-62
2023/04/16 09:49:12;;;;;;;5.97;2.33;;;10.80;99.90;;;;;;5009432;28;20053;-63
2023/04/16 09:51:41;;;;;;;0.20;0.20;;;10.90;99.90;;;;;;5023060;28;20063;-62
2023/04/16 09:54:08;;;;;;;0.20;0.20;;;11.00;99.90;;;;;;5020626;28;20056;-62
2023/04/16 09:56:39;;;;;;;0.65;0.65;;;11.00;99.90;;;;;;5014383;28;20539;-62
2023/04/16 09:59:05;;;;;;;0.45;0.45;;;11.00;99.90;;;;;;5009333;28;20482;-62
2023/04/16 10:01:30;;;;;;;1.55;1.45;;;11.10;99.90;;;;;;5020549;28;20049;-62
2023/04/16 10:03:57;;;;;;;5.30;1.08;;;11.10;99.90;;;;;;5024847;28;20103;-62
2023/04/16 10:06:26;;;;;;;1.17;1.15;;;11.10;99.90;;;;;;5020681;28;20577;-62
2023/04/16 10:08:55;;;;;;;0.73;0.73;;;11.10;99.90;;;;;;5019863;28;20049;-62
2023/04/16 10:11:21;;;;;;;0.30;0.30;;;11.10;99.90;;;;;;5030051;28;20084;-62
2023/04/16 10:13:46;;;;;;;0.20;0.20;;;11.10;99.90;;;;;;5009214;28;20041;-62
2023/04/16 10:16:12;;;;;;;1.08;1.00;;;11.20;99.90;;;;;;5017309;28;20042;-62
2023/04/16 10:18:43;;;;;;;0.10;0.10;;;11.10;99.90;;;;;;5010265;28;20049;-62
2023/04/16 10:21:11;;;;;;;0.55;0.55;;;11.10;99.90;;;;;;5012053;28;20081;-62
2023/04/16 10:23:38;;;;;;;0.95;0.95;;;11.10;99.90;;;;;;5017508;28;20115;-62
2023/04/16 10:26:05;;;;;;;0.90;0.90;;;11.20;99.90;;;;;;5009807;28;20049;-62
2023/04/16 10:28:34;;;;;;;1.35;1.10;;;11.20;99.90;;;;;;5013336;28;20089;-62
2023/04/16 10:31:02;;;;;;;3.95;0.98;;;11.20;99.90;;;;;;5022227;28;20385;-63
2023/04/16 10:33:30;;;;;;;0.08;0.08;;;11.20;99.90;;;;;;5017453;28;20041;-62
2023/04/16 10:36:10;;;;;;;1.45;0.80;;;11.10;99.90;;;;;;5013293;28;20482;-63
2023/04/16 10:38:49;;;;;;;0.17;0.17;;;11.10;99.90;;;;;;5011659;28;20818;-62
2023/04/16 10:41:15;;;;;;;0.82;0.82;;;11.20;99.90;;;;;;5013567;28;20080;-62
2023/04/16 10:43:46;;;;;;;0.73;0.73;;;11.10;99.90;;;;;;5014269;28;20073;-62
2023/04/16 10:46:39;;;;;;;0.10;0.10;;;11.10;99.90;;;;;;5021137;28;20049;-62
2023/04/16 10:49:19;;;;;;;12.60;2.00;;;11.10;99.90;;;;;;5015946;28;20054;-63
2023/04/16 10:52:17;;;;;;;0.55;0.55;;;11.10;99.90;;;;;;5030245;28;20203;-63
2023/04/16 10:54:43;;;;;;;2.63;1.65;;;11.10;99.90;;;;;;5008599;28;20104;-63
2023/04/16 10:57:15;;;;;;;1.40;0.93;;;11.20;99.90;;;;;;5013474;28;20482;-63
2023/04/16 10:59:42;;;;;;;0.20;0.20;;;11.20;99.90;;;;;;5013091;28;20916;-62
2023/04/16 11:02:14;;;;;;;0.20;0.20;;;11.20;99.90;;;;;;5014486;28;20119;-62
2023/04/16 11:04:44;;;;;;;0.52;0.52;;;11.20;99.90;;;;;;5016261;28;20045;-63
2023/04/16 11:07:10;;;;;;;0.40;0.40;;;11.20;99.90;;;;;;5015974;28;20396;-63
2023/04/16 11:09:58;;;;;;;2.97;2.20;;;11.30;99.90;;;;;;5015477;28;20041;-62
2023/04/16 11:12:37;;;;;;;1.35;1.25;;;11.30;99.90;;;;;;5022190;28;20049;-62
2023/04/16 11:15:13;;;;;;;5.32;1.95;;;11.30;99.90;;;;;;5020543;28;20041;-62
2023/04/16 11:17:43;;;;;;;0.13;0.13;;;11.30;99.90;;;;;;5021558;28;20052;-62
2023/04/16 11:20:21;;;;;;;0.10;0.10;;;11.30;99.90;;;;;;5017595;28;20061;-62
2023/04/16 11:22:52;;;;;;;1.25;1.20;;;11.30;99.90;;;;;;5010956;28;20149;-62
2023/04/16 11:25:21;;;;;;;0.70;0.63;;;11.30;99.90;;;;;;5014572;28;20137;-62
2023/04/16 11:27:48;;;;;;;0.73;0.60;;;11.30;99.90;;;;;;5017038;28;20049;-63
2023/04/16 11:30:13;;;;;;;0.30;0.30;;;11.30;99.90;;;;;;5021505;28;20042;-62
2023/04/16 11:32:39;;;;;;;0.20;0.20;;;11.40;99.90;;;;;;5012873;28;20034;-62
2023/04/16 11:35:16;;;;;;;0.22;0.22;;;11.40;99.90;;;;;;5013844;28;20071;-62
2023/04/16 11:37:42;;;;;;;0.57;0.57;;;11.40;99.90;;;;;;5013919;28;20049;-62
2023/04/16 11:40:09;;;;;;;0.50;0.50;;;11.40;99.90;;;;;;5014190;28;20046;-62
2023/04/16 11:42:36;;;;;;;0.52;0.52;;;11.50;99.90;;;;;;5017469;28;20343;-62
2023/04/16 11:45:02;;;;;;;0.32;0.32;;;11.50;99.90;;;;;;5017794;28;20436;-62
2023/04/16 11:47:29;;;;;;;1.30;1.20;;;11.50;99.90;;;;;;5012685;28;20049;-62
2023/04/16 11:49:55;;;;;;;0.60;0.60;;;11.60;99.90;;;;;;5021083;28;21639;-62
2023/04/16 11:52:29;;;;;;;0.63;0.63;;;11.50;99.90;;;;;;5030516;28;20057;-62
2023/04/16 11:54:55;;;;;;;4.00;1.15;;;11.50;99.90;;;;;;5025035;28;20434;-62
2023/04/16 11:57:28;;;;;;;0.20;0.20;;;11.50;99.90;;;;;;5017483;28;20060;-63
2023/04/16 11:59:55;;;;;;;2.42;0.35;;;11.60;99.90;;;;;;5017966;28;20045;-64
2023/04/16 12:02:42;;;;;;;0.75;0.75;;;11.70;99.90;;;;;;5026323;28;20045;-62
2023/04/16 12:05:30;;;;;;;1.08;0.85;;;11.70;99.90;;;;;;5014950;28;20530;-62
2023/04/16 12:07:57;;;;;;;2.40;1.30;;;11.60;99.90;;;;;;5022163;28;20104;-63
2023/04/16 12:10:23;;;;;;;0.40;0.40;;;11.70;99.90;;;;;;5013440;28;20045;-63
2023/04/16 12:12:48;;;;;;;0.82;0.57;;;11.80;99.90;;;;;;5015193;28;20057;-63
2023/04/16 12:15:14;;;;;;;0.30;0.30;;;11.70;99.90;;;;;;5011546;28;20125;-63
2023/04/16 12:17:40;;;;;;;2.85;2.65;;;11.90;99.90;;;;;;5009689;28;20041;-63
2023/04/16 12:20:10;;;;;;;0.70;0.70;;;11.90;99.90;;;;;;5012997;28;20045;-63
2023/04/16 12:22:37;;;;;;;1.40;1.17;;;11.80;99.90;;;;;;5024896;28;20049;-63
2023/04/16 12:25:10;;;;;;;1.25;1.25;;;11.90;99.90;;;;;;5022824;28;20442;-63
2023/04/16 12:27:44;;;;;;;0.65;0.65;;;11.90;99.90;;;;;;5011635;28;20049;-63
2023/04/16 12:30:10;;;;;;;6.30;1.17;;;12.00;99.90;;;;;;5023068;28;20057;-62
2023/04/16 12:32:36;;;;;;;0.13;0.13;;;12.10;99.90;;;;;;5014834;28;20050;-63
2023/04/16 12:35:02;;;;;;;0.20;0.20;;;12.20;99.90;;;;;;5010905;28;20057;-63
2023/04/16 12:37:27;;;;;;;0.10;0.10;;;12.20;99.90;;;;;;5013395;28;20046;-63
2023/04/16 12:39:53;;;;;;;1.25;1.15;;;12.30;99.90;;;;;;5011001;28;20050;-63
2023/04/16 12:42:20;;;;;;;1.15;1.10;;;12.30;99.90;;;;;;5029570;28;20069;-63
2023/04/16 12:44:45;;;;;;;0.00;0.00;;;12.20;99.90;;;;;;5010164;28;20494;-63
2023/04/16 12:47:11;;;;;;;0.65;0.65;;;12.40;99.90;;;;;;5010434;28;20040;-63
2023/04/16 12:49:37;;;;;;;1.10;1.10;;;12.40;99.90;;;;;;5016678;28;20493;-63
2023/04/16 12:52:03;;;;;;;0.98;0.90;;;12.50;99.90;;;;;;5011698;28;20046;-63